sensor_id;sensor_type;location;lat;lon;timestamp;P1;durP1;ratioP1;P2;durP2;ratioP2
78908;SDS011;68298;37.368;127.108;2023-04-24T00:02:07;7.53;;;4.47;;
78908;SDS011;68298;37.368;127.108;2023-04-24T00:04:40;11.53;;;5.27;;
78908;SDS011;68298;37.368;127.108;2023-04-24T00:07:13;9.40;;;5.10;;
78908;SDS011;68298;37.368;127.108;2023-04-24T00:09:46;8.93;;;4.10;;
78908;SDS011;68298;37.368;127.108;2023-04-24T00:12:16;11.45;;;4.45;;
78908;SDS011;68298;37.368;127.108;2023-04-24T00:14:59;9.00;;;4.57;;
78908;SDS011;68298;37.368;127.108;2023-04-24T00:17:31;9.80;;;4.85;;
78908;SDS011;68298;37.368;127.108;2023-04-24T00:20:02;9.13;;;4.55;;
78908;SDS011;68298;37.368;127.108;2023-04-24T00:22:33;8.63;;;4.80;;
78908;SDS011;68298;37.368;127.108;2023-04-24T00:25:04;9.75;;;4.70;;
78908;SDS011;68298;37.368;127.108;2023-04-24T00:27:35;8.73;;;4.38;;
78908;SDS011;68298;37.368;127.108;2023-04-24T00:30:20;7.68;;;4.25;;
78908;SDS011;68298;37.368;127.108;2023-04-24T00:32:50;7.82;;;4.70;;
78908;SDS011;68298;37.368;127.108;2023-04-24T00:35:22;13.85;;;4.97;;
78908;SDS011;68298;37.368;127.108;2023-04-24T00:37:53;11.32;;;4.40;;
78908;SDS011;68298;37.368;127.108;2023-04-24T00:40:24;11.20;;;4.32;;
78908;SDS011;68298;37.368;127.108;2023-04-24T00:42:54;10.20;;;4.35;;
78908;SDS011;68298;37.368;127.108;2023-04-24T00:45:26;11.30;;;4.25;;
78908;SDS011;68298;37.368;127.108;2023-04-24T00:48:10;8.95;;;4.20;;
78908;SDS011;68298;37.368;127.108;2023-04-24T00:50:42;11.00;;;4.32;;
78908;SDS011;68298;37.368;127.108;2023-04-24T00:53:13;10.82;;;4.22;;
78908;SDS011;68298;37.368;127.108;2023-04-24T00:58:27;9.80;;;3.78;;
78908;SDS011;68298;37.368;127.108;2023-04-24T01:00:59;16.85;;;4.32;;
78908;SDS011;68298;37.368;127.108;2023-04-24T01:03:31;14.13;;;4.38;;
78908;SDS011;68298;37.368;127.108;2023-04-24T01:06:03;16.33;;;5.32;;
78908;SDS011;68298;37.368;127.108;2023-04-24T01:08:34;11.05;;;4.03;;
78908;SDS011;68298;37.368;127.108;2023-04-24T01:11:06;11.90;;;4.10;;
78908;SDS011;68298;37.368;127.108;2023-04-24T01:13:37;7.88;;;4.07;;
78908;SDS011;68298;37.368;127.108;2023-04-24T01:16:09;11.75;;;4.15;;
78908;SDS011;68298;37.368;127.108;2023-04-24T01:18:40;11.48;;;3.78;;
78908;SDS011;68298;37.368;127.108;2023-04-24T01:21:11;10.40;;;4.15;;
78908;SDS011;68298;37.368;127.108;2023-04-24T01:23:45;13.82;;;4.35;;
78908;SDS011;68298;37.368;127.108;2023-04-24T01:26:17;16.50;;;4.82;;
78908;SDS011;68298;37.368;127.108;2023-04-24T01:28:51;42.90;;;5.75;;
78908;SDS011;68298;37.368;127.108;2023-04-24T01:31:22;33.25;;;5.10;;
78908;SDS011;68298;37.368;127.108;2023-04-24T01:33:53;34.33;;;4.65;;
78908;SDS011;68298;37.368;127.108;2023-04-24T01:36:25;16.00;;;4.30;;
78908;SDS011;68298;37.368;127.108;2023-04-24T01:41:29;23.52;;;5.55;;
78908;SDS011;68298;37.368;127.108;2023-04-24T01:44:03;35.58;;;5.10;;
78908;SDS011;68298;37.368;127.108;2023-04-24T01:46:34;29.92;;;5.68;;
78908;SDS011;68298;37.368;127.108;2023-04-24T01:49:05;22.75;;;4.93;;
78908;SDS011;68298;37.368;127.108;2023-04-24T01:51:37;20.25;;;5.10;;
78908;SDS011;68298;37.368;127.108;2023-04-24T01:54:08;18.50;;;4.60;;
78908;SDS011;68298;37.368;127.108;2023-04-24T01:56:40;10.05;;;4.40;;
78908;SDS011;68298;37.368;127.108;2023-04-24T01:59:12;17.03;;;5.33;;
78908;SDS011;68298;37.368;127.108;2023-04-24T02:01:42;10.20;;;4.60;;
78908;SDS011;68298;37.368;127.108;2023-04-24T02:04:13;13.10;;;4.07;;
78908;SDS011;68298;37.368;127.108;2023-04-24T02:06:45;18.05;;;4.65;;
78908;SDS011;68298;37.368;127.108;2023-04-24T02:09:16;13.30;;;4.40;;
78908;SDS011;68298;37.368;127.108;2023-04-24T02:11:46;14.05;;;4.07;;
78908;SDS011;68298;37.368;127.108;2023-04-24T02:14:17;11.30;;;4.47;;
78908;SDS011;68298;37.368;127.108;2023-04-24T02:16:48;10.40;;;4.20;;
78908;SDS011;68298;37.368;127.108;2023-04-24T02:19:18;8.60;;;4.18;;
78908;SDS011;68298;37.368;127.108;2023-04-24T02:21:50;6.90;;;4.05;;
78908;SDS011;68298;37.368;127.108;2023-04-24T02:24:20;12.68;;;4.18;;
78908;SDS011;68298;37.368;127.108;2023-04-24T02:26:51;6.80;;;4.07;;
78908;SDS011;68298;37.368;127.108;2023-04-24T02:29:22;9.05;;;3.85;;
78908;SDS011;68298;37.368;127.108;2023-04-24T02:31:52;10.48;;;4.57;;
78908;SDS011;68298;37.368;127.108;2023-04-24T02:34:23;9.38;;;3.92;;
78908;SDS011;68298;37.368;127.108;2023-04-24T02:36:53;9.68;;;3.92;;
78908;SDS011;68298;37.368;127.108;2023-04-24T02:39:24;15.18;;;4.63;;
78908;SDS011;68298;37.368;127.108;2023-04-24T02:41:54;7.05;;;3.83;;
78908;SDS011;68298;37.368;127.108;2023-04-24T02:44:25;9.68;;;4.20;;
78908;SDS011;68298;37.368;127.108;2023-04-24T02:46:56;6.45;;;3.90;;
78908;SDS011;68298;37.368;127.108;2023-04-24T02:49:26;7.85;;;3.90;;
78908;SDS011;68298;37.368;127.108;2023-04-24T02:51:57;9.25;;;4.00;;
78908;SDS011;68298;37.368;127.108;2023-04-24T02:54:27;10.50;;;4.00;;
78908;SDS011;68298;37.368;127.108;2023-04-24T02:56:57;4.25;;;3.50;;
78908;SDS011;68298;37.368;127.108;2023-04-24T02:59:29;7.72;;;3.53;;
78908;SDS011;68298;37.368;127.108;2023-04-24T03:02:00;5.82;;;3.75;;
78908;SDS011;68298;37.368;127.108;2023-04-24T03:04:31;6.63;;;3.53;;
78908;SDS011;68298;37.368;127.108;2023-04-24T03:07:02;6.43;;;4.05;;
78908;SDS011;68298;37.368;127.108;2023-04-24T03:09:33;6.80;;;3.83;;
78908;SDS011;68298;37.368;127.108;2023-04-24T03:12:03;9.68;;;4.25;;
78908;SDS011;68298;37.368;127.108;2023-04-24T03:14:34;5.35;;;3.20;;
78908;SDS011;68298;37.368;127.108;2023-04-24T03:17:04;10.82;;;3.60;;
78908;SDS011;68298;37.368;127.108;2023-04-24T03:19:35;6.65;;;3.72;;
78908;SDS011;68298;37.368;127.108;2023-04-24T03:22:09;6.78;;;3.70;;
78908;SDS011;68298;37.368;127.108;2023-04-24T03:24:40;7.85;;;3.88;;
78908;SDS011;68298;37.368;127.108;2023-04-24T03:27:14;10.00;;;3.67;;
78908;SDS011;68298;37.368;127.108;2023-04-24T03:29:58;8.20;;;4.75;;
78908;SDS011;68298;37.368;127.108;2023-04-24T03:32:39;5.05;;;3.60;;
78908;SDS011;68298;37.368;127.108;2023-04-24T03:35:13;6.90;;;4.10;;
78908;SDS011;68298;37.368;127.108;2023-04-24T03:37:44;4.68;;;3.28;;
78908;SDS011;68298;37.368;127.108;2023-04-24T03:40:37;6.82;;;3.25;;
78908;SDS011;68298;37.368;127.108;2023-04-24T03:43:24;5.35;;;3.80;;
78908;SDS011;68298;37.368;127.108;2023-04-24T03:45:58;7.13;;;3.35;;
78908;SDS011;68298;37.368;127.108;2023-04-24T03:48:32;8.70;;;4.03;;
78908;SDS011;68298;37.368;127.108;2023-04-24T03:51:03;7.20;;;4.03;;
78908;SDS011;68298;37.368;127.108;2023-04-24T03:53:37;5.57;;;3.53;;
78908;SDS011;68298;37.368;127.108;2023-04-24T03:56:08;7.38;;;3.55;;
78908;SDS011;68298;37.368;127.108;2023-04-24T03:58:40;9.93;;;3.58;;
78908;SDS011;68298;37.368;127.108;2023-04-24T04:01:11;5.03;;;3.47;;
78908;SDS011;68298;37.368;127.108;2023-04-24T04:03:54;5.45;;;3.65;;
78908;SDS011;68298;37.368;127.108;2023-04-24T04:06:27;4.75;;;3.17;;
78908;SDS011;68298;37.368;127.108;2023-04-24T04:08:59;6.10;;;3.30;;
78908;SDS011;68298;37.368;127.108;2023-04-24T04:11:30;5.50;;;3.40;;
78908;SDS011;68298;37.368;127.108;2023-04-24T04:14:00;6.72;;;3.50;;
78908;SDS011;68298;37.368;127.108;2023-04-24T04:16:33;8.63;;;3.53;;
78908;SDS011;68298;37.368;127.108;2023-04-24T04:19:06;8.88;;;3.40;;
78908;SDS011;68298;37.368;127.108;2023-04-24T04:21:36;4.07;;;2.92;;
78908;SDS011;68298;37.368;127.108;2023-04-24T04:24:19;5.00;;;3.30;;
78908;SDS011;68298;37.368;127.108;2023-04-24T04:26:53;4.68;;;2.92;;
78908;SDS011;68298;37.368;127.108;2023-04-24T04:29:34;7.43;;;3.20;;
78908;SDS011;68298;37.368;127.108;2023-04-24T04:32:07;5.97;;;3.05;;
78908;SDS011;68298;37.368;127.108;2023-04-24T04:34:39;6.93;;;3.53;;
78908;SDS011;68298;37.368;127.108;2023-04-24T04:37:11;7.20;;;3.25;;
78908;SDS011;68298;37.368;127.108;2023-04-24T04:39:50;4.13;;;2.80;;
78908;SDS011;68298;37.368;127.108;2023-04-24T04:42:25;7.25;;;3.25;;
78908;SDS011;68298;37.368;127.108;2023-04-24T04:44:57;10.10;;;3.33;;
78908;SDS011;68298;37.368;127.108;2023-04-24T04:47:39;7.13;;;3.72;;
78908;SDS011;68298;37.368;127.108;2023-04-24T04:50:11;14.63;;;3.13;;
78908;SDS011;68298;37.368;127.108;2023-04-24T04:52:41;8.85;;;3.25;;
78908;SDS011;68298;37.368;127.108;2023-04-24T04:55:21;6.18;;;3.10;;
78908;SDS011;68298;37.368;127.108;2023-04-24T04:58:07;9.88;;;3.33;;
78908;SDS011;68298;37.368;127.108;2023-04-24T05:00:37;6.28;;;3.10;;
78908;SDS011;68298;37.368;127.108;2023-04-24T05:03:17;11.48;;;3.65;;
78908;SDS011;68298;37.368;127.108;2023-04-24T05:05:57;6.18;;;3.17;;
78908;SDS011;68298;37.368;127.108;2023-04-24T05:08:31;7.38;;;2.80;;
78908;SDS011;68298;37.368;127.108;2023-04-24T05:11:03;12.10;;;3.45;;
78908;SDS011;68298;37.368;127.108;2023-04-24T05:13:34;14.75;;;3.10;;
78908;SDS011;68298;37.368;127.108;2023-04-24T05:16:26;6.78;;;3.15;;
78908;SDS011;68298;37.368;127.108;2023-04-24T05:18:57;9.80;;;3.50;;
78908;SDS011;68298;37.368;127.108;2023-04-24T05:21:33;10.15;;;3.45;;
78908;SDS011;68298;37.368;127.108;2023-04-24T05:24:04;14.10;;;3.45;;
78908;SDS011;68298;37.368;127.108;2023-04-24T05:26:53;14.43;;;3.80;;
78908;SDS011;68298;37.368;127.108;2023-04-24T05:29:30;65.00;;;6.30;;
78908;SDS011;68298;37.368;127.108;2023-04-24T05:32:03;37.13;;;4.80;;
78908;SDS011;68298;37.368;127.108;2023-04-24T05:34:34;20.70;;;3.67;;
78908;SDS011;68298;37.368;127.108;2023-04-24T05:37:05;53.50;;;5.20;;
78908;SDS011;68298;37.368;127.108;2023-04-24T05:39:38;43.40;;;7.18;;
78908;SDS011;68298;37.368;127.108;2023-04-24T05:42:11;39.17;;;5.72;;
78908;SDS011;68298;37.368;127.108;2023-04-24T05:44:42;29.60;;;5.10;;
78908;SDS011;68298;37.368;127.108;2023-04-24T05:47:12;20.23;;;4.97;;
78908;SDS011;68298;37.368;127.108;2023-04-24T05:49:43;19.33;;;4.60;;
78908;SDS011;68298;37.368;127.108;2023-04-24T05:52:13;30.15;;;4.75;;
78908;SDS011;68298;37.368;127.108;2023-04-24T05:54:44;25.00;;;4.97;;
78908;SDS011;68298;37.368;127.108;2023-04-24T05:57:20;18.25;;;3.90;;
78908;SDS011;68298;37.368;127.108;2023-04-24T05:59:58;20.70;;;4.32;;
78908;SDS011;68298;37.368;127.108;2023-04-24T06:02:39;17.63;;;4.63;;
78908;SDS011;68298;37.368;127.108;2023-04-24T06:05:12;28.33;;;5.20;;
78908;SDS011;68298;37.368;127.108;2023-04-24T06:07:44;11.90;;;4.50;;
78908;SDS011;68298;37.368;127.108;2023-04-24T06:10:16;16.55;;;4.68;;
78908;SDS011;68298;37.368;127.108;2023-04-24T06:12:46;18.70;;;4.35;;
78908;SDS011;68298;37.368;127.108;2023-04-24T06:15:17;19.70;;;4.13;;
78908;SDS011;68298;37.368;127.108;2023-04-24T06:17:56;14.85;;;4.10;;
78908;SDS011;68298;37.368;127.108;2023-04-24T06:20:26;13.57;;;4.10;;
78908;SDS011;68298;37.368;127.108;2023-04-24T06:22:58;10.98;;;3.67;;
78908;SDS011;68298;37.368;127.108;2023-04-24T06:25:29;8.93;;;3.15;;
78908;SDS011;68298;37.368;127.108;2023-04-24T06:27:59;12.27;;;3.83;;
78908;SDS011;68298;37.368;127.108;2023-04-24T06:30:30;13.40;;;3.97;;
78908;SDS011;68298;37.368;127.108;2023-04-24T06:33:01;7.03;;;3.58;;
78908;SDS011;68298;37.368;127.108;2023-04-24T06:35:46;11.55;;;3.88;;
78908;SDS011;68298;37.368;127.108;2023-04-24T06:38:16;8.68;;;3.88;;
78908;SDS011;68298;37.368;127.108;2023-04-24T06:40:46;9.32;;;4.43;;
78908;SDS011;68298;37.368;127.108;2023-04-24T06:43:18;9.02;;;3.67;;
78908;SDS011;68298;37.368;127.108;2023-04-24T06:45:49;8.02;;;3.58;;
78908;SDS011;68298;37.368;127.108;2023-04-24T06:48:20;9.65;;;3.45;;
78908;SDS011;68298;37.368;127.108;2023-04-24T06:50:51;9.43;;;3.85;;
78908;SDS011;68298;37.368;127.108;2023-04-24T06:53:21;9.95;;;3.92;;
78908;SDS011;68298;37.368;127.108;2023-04-24T06:55:52;8.27;;;3.47;;
78908;SDS011;68298;37.368;127.108;2023-04-24T06:58:24;9.02;;;3.47;;
78908;SDS011;68298;37.368;127.108;2023-04-24T07:00:55;8.70;;;3.33;;
78908;SDS011;68298;37.368;127.108;2023-04-24T07:03:25;9.68;;;3.70;;
78908;SDS011;68298;37.368;127.108;2023-04-24T07:05:56;16.17;;;3.88;;
78908;SDS011;68298;37.368;127.108;2023-04-24T07:11:10;11.10;;;3.42;;
78908;SDS011;68298;37.368;127.108;2023-04-24T07:13:41;10.38;;;3.83;;
78908;SDS011;68298;37.368;127.108;2023-04-24T07:16:12;7.63;;;3.58;;
78908;SDS011;68298;37.368;127.108;2023-04-24T07:18:43;9.82;;;3.55;;
78908;SDS011;68298;37.368;127.108;2023-04-24T07:21:14;8.05;;;3.58;;
78908;SDS011;68298;37.368;127.108;2023-04-24T07:23:44;6.82;;;3.45;;
78908;SDS011;68298;37.368;127.108;2023-04-24T07:26:15;10.48;;;3.83;;
78908;SDS011;68298;37.368;127.108;2023-04-24T07:28:45;8.57;;;3.80;;
78908;SDS011;68298;37.368;127.108;2023-04-24T07:31:17;8.82;;;3.63;;
78908;SDS011;68298;37.368;127.108;2023-04-24T07:33:48;7.10;;;3.38;;
78908;SDS011;68298;37.368;127.108;2023-04-24T07:36:20;9.15;;;3.67;;
78908;SDS011;68298;37.368;127.108;2023-04-24T07:38:50;5.32;;;3.33;;
78908;SDS011;68298;37.368;127.108;2023-04-24T07:41:21;8.25;;;3.30;;
78908;SDS011;68298;37.368;127.108;2023-04-24T07:43:53;8.93;;;3.80;;
78908;SDS011;68298;37.368;127.108;2023-04-24T07:46:23;5.72;;;3.80;;
78908;SDS011;68298;37.368;127.108;2023-04-24T07:48:54;5.45;;;3.28;;
78908;SDS011;68298;37.368;127.108;2023-04-24T07:51:40;11.50;;;4.00;;
78908;SDS011;68298;37.368;127.108;2023-04-24T07:54:10;10.38;;;3.85;;
78908;SDS011;68298;37.368;127.108;2023-04-24T07:56:41;9.55;;;3.90;;
78908;SDS011;68298;37.368;127.108;2023-04-24T07:59:12;7.18;;;3.92;;
78908;SDS011;68298;37.368;127.108;2023-04-24T08:01:43;7.32;;;3.10;;
78908;SDS011;68298;37.368;127.108;2023-04-24T08:04:14;8.35;;;3.33;;
78908;SDS011;68298;37.368;127.108;2023-04-24T08:06:46;7.20;;;3.78;;
78908;SDS011;68298;37.368;127.108;2023-04-24T08:09:18;11.18;;;4.53;;
78908;SDS011;68298;37.368;127.108;2023-04-24T08:11:49;9.50;;;4.80;;
78908;SDS011;68298;37.368;127.108;2023-04-24T08:14:19;8.18;;;3.42;;
78908;SDS011;68298;37.368;127.108;2023-04-24T08:16:50;6.20;;;3.80;;
78908;SDS011;68298;37.368;127.108;2023-04-24T08:19:21;6.75;;;2.80;;
78908;SDS011;68298;37.368;127.108;2023-04-24T08:21:52;4.45;;;3.47;;
78908;SDS011;68298;37.368;127.108;2023-04-24T08:24:23;5.60;;;3.70;;
78908;SDS011;68298;37.368;127.108;2023-04-24T08:26:53;9.43;;;3.83;;
78908;SDS011;68298;37.368;127.108;2023-04-24T08:29:25;7.47;;;3.67;;
78908;SDS011;68298;37.368;127.108;2023-04-24T08:31:56;7.88;;;3.78;;
78908;SDS011;68298;37.368;127.108;2023-04-24T08:34:27;6.90;;;3.50;;
78908;SDS011;68298;37.368;127.108;2023-04-24T08:36:57;9.57;;;4.45;;
78908;SDS011;68298;37.368;127.108;2023-04-24T08:39:28;8.52;;;4.03;;
78908;SDS011;68298;37.368;127.108;2023-04-24T08:41:59;9.90;;;3.95;;
78908;SDS011;68298;37.368;127.108;2023-04-24T08:44:35;7.97;;;4.07;;
78908;SDS011;68298;37.368;127.108;2023-04-24T08:47:06;7.85;;;4.00;;
78908;SDS011;68298;37.368;127.108;2023-04-24T08:49:38;15.25;;;4.40;;
78908;SDS011;68298;37.368;127.108;2023-04-24T08:52:08;7.35;;;4.18;;
78908;SDS011;68298;37.368;127.108;2023-04-24T08:57:14;9.02;;;4.57;;
78908;SDS011;68298;37.368;127.108;2023-04-24T08:59:46;10.18;;;4.38;;
78908;SDS011;68298;37.368;127.108;2023-04-24T09:02:17;9.25;;;4.13;;
78908;SDS011;68298;37.368;127.108;2023-04-24T09:04:48;8.60;;;4.00;;
78908;SDS011;68298;37.368;127.108;2023-04-24T09:07:22;8.35;;;4.50;;
78908;SDS011;68298;37.368;127.108;2023-04-24T09:09:58;10.45;;;4.43;;
78908;SDS011;68298;37.368;127.108;2023-04-24T09:12:30;8.60;;;3.85;;
78908;SDS011;68298;37.368;127.108;2023-04-24T09:15:02;9.05;;;3.85;;
78908;SDS011;68298;37.368;127.108;2023-04-24T09:17:33;7.45;;;3.85;;
78908;SDS011;68298;37.368;127.108;2023-04-24T09:20:04;9.73;;;4.35;;
78908;SDS011;68298;37.368;127.108;2023-04-24T09:22:36;10.73;;;4.22;;
78908;SDS011;68298;37.368;127.108;2023-04-24T09:25:07;9.20;;;4.18;;
78908;SDS011;68298;37.368;127.108;2023-04-24T09:27:42;8.18;;;3.85;;
78908;SDS011;68298;37.368;127.108;2023-04-24T09:30:14;8.77;;;4.65;;
78908;SDS011;68298;37.368;127.108;2023-04-24T09:33:13;11.80;;;4.85;;
78908;SDS011;68298;37.368;127.108;2023-04-24T09:35:50;6.68;;;4.03;;
78908;SDS011;68298;37.368;127.108;2023-04-24T09:38:39;9.52;;;4.57;;
78908;SDS011;68298;37.368;127.108;2023-04-24T09:41:12;13.70;;;4.43;;
78908;SDS011;68298;37.368;127.108;2023-04-24T09:43:44;9.25;;;4.22;;
78908;SDS011;68298;37.368;127.108;2023-04-24T09:46:14;11.13;;;4.10;;
78908;SDS011;68298;37.368;127.108;2023-04-24T09:48:48;9.98;;;3.58;;
78908;SDS011;68298;37.368;127.108;2023-04-24T09:51:20;12.57;;;4.10;;
78908;SDS011;68298;37.368;127.108;2023-04-24T09:54:14;8.77;;;3.97;;
78908;SDS011;68298;37.368;127.108;2023-04-24T09:56:48;10.13;;;3.90;;
78908;SDS011;68298;37.368;127.108;2023-04-24T09:59:19;7.93;;;4.45;;
78908;SDS011;68298;37.368;127.108;2023-04-24T10:01:51;8.07;;;4.00;;
78908;SDS011;68298;37.368;127.108;2023-04-24T10:04:22;8.05;;;3.80;;
78908;SDS011;68298;37.368;127.108;2023-04-24T10:06:57;7.32;;;3.95;;
78908;SDS011;68298;37.368;127.108;2023-04-24T10:09:29;9.77;;;3.72;;
78908;SDS011;68298;37.368;127.108;2023-04-24T10:12:00;9.15;;;4.40;;
78908;SDS011;68298;37.368;127.108;2023-04-24T10:14:31;7.78;;;4.22;;
78908;SDS011;68298;37.368;127.108;2023-04-24T10:17:02;9.23;;;4.30;;
78908;SDS011;68298;37.368;127.108;2023-04-24T10:19:33;8.15;;;3.97;;
78908;SDS011;68298;37.368;127.108;2023-04-24T10:22:04;11.73;;;4.32;;
78908;SDS011;68298;37.368;127.108;2023-04-24T10:24:36;7.18;;;3.70;;
78908;SDS011;68298;37.368;127.108;2023-04-24T10:27:07;10.88;;;4.22;;
78908;SDS011;68298;37.368;127.108;2023-04-24T10:29:38;9.18;;;4.05;;
78908;SDS011;68298;37.368;127.108;2023-04-24T10:32:12;6.78;;;4.10;;
78908;SDS011;68298;37.368;127.108;2023-04-24T10:34:43;6.63;;;3.78;;
78908;SDS011;68298;37.368;127.108;2023-04-24T10:37:14;6.95;;;3.90;;
78908;SDS011;68298;37.368;127.108;2023-04-24T10:39:47;6.63;;;3.92;;
78908;SDS011;68298;37.368;127.108;2023-04-24T10:42:20;5.93;;;3.25;;
78908;SDS011;68298;37.368;127.108;2023-04-24T10:44:51;6.25;;;3.85;;
78908;SDS011;68298;37.368;127.108;2023-04-24T10:47:24;6.50;;;4.00;;
78908;SDS011;68298;37.368;127.108;2023-04-24T10:49:54;6.80;;;3.47;;
78908;SDS011;68298;37.368;127.108;2023-04-24T10:52:46;6.43;;;3.53;;
78908;SDS011;68298;37.368;127.108;2023-04-24T10:58:12;5.95;;;3.38;;
78908;SDS011;68298;37.368;127.108;2023-04-24T11:00:43;6.82;;;3.60;;
78908;SDS011;68298;37.368;127.108;2023-04-24T11:06:04;7.55;;;4.00;;
78908;SDS011;68298;37.368;127.108;2023-04-24T11:08:57;6.88;;;3.88;;
78908;SDS011;68298;37.368;127.108;2023-04-24T11:11:35;7.63;;;3.65;;
78908;SDS011;68298;37.368;127.108;2023-04-24T11:14:08;5.60;;;3.42;;
78908;SDS011;68298;37.368;127.108;2023-04-24T11:16:52;11.10;;;3.58;;
78908;SDS011;68298;37.368;127.108;2023-04-24T11:19:25;6.32;;;3.63;;
78908;SDS011;68298;37.368;127.108;2023-04-24T11:27:23;5.82;;;3.63;;
78908;SDS011;68298;37.368;127.108;2023-04-24T11:37:58;6.28;;;3.50;;
78908;SDS011;68298;37.368;127.108;2023-04-24T11:40:34;9.23;;;3.72;;
78908;SDS011;68298;37.368;127.108;2023-04-24T11:43:08;5.57;;;3.80;;
78908;SDS011;68298;37.368;127.108;2023-04-24T11:45:47;7.07;;;3.60;;
78908;SDS011;68298;37.368;127.108;2023-04-24T11:48:19;8.35;;;3.60;;
78908;SDS011;68298;37.368;127.108;2023-04-24T11:50:51;9.75;;;3.17;;
78908;SDS011;68298;37.368;127.108;2023-04-24T11:53:22;6.43;;;3.33;;
78908;SDS011;68298;37.368;127.108;2023-04-24T11:55:52;8.43;;;3.42;;
78908;SDS011;68298;37.368;127.108;2023-04-24T11:58:24;6.25;;;3.63;;
78908;SDS011;68298;37.368;127.108;2023-04-24T12:00:56;4.75;;;3.40;;
78908;SDS011;68298;37.368;127.108;2023-04-24T12:03:29;6.38;;;3.17;;
78908;SDS011;68298;37.368;127.108;2023-04-24T12:06:06;5.60;;;3.25;;
78908;SDS011;68298;37.368;127.108;2023-04-24T12:08:38;7.10;;;3.47;;
78908;SDS011;68298;37.368;127.108;2023-04-24T12:11:09;8.35;;;3.50;;
78908;SDS011;68298;37.368;127.108;2023-04-24T12:13:40;6.13;;;3.45;;
78908;SDS011;68298;37.368;127.108;2023-04-24T12:16:11;6.38;;;3.47;;
78908;SDS011;68298;37.368;127.108;2023-04-24T12:18:42;7.38;;;4.20;;
78908;SDS011;68298;37.368;127.108;2023-04-24T12:21:15;6.95;;;3.72;;
78908;SDS011;68298;37.368;127.108;2023-04-24T12:23:49;6.20;;;3.65;;
78908;SDS011;68298;37.368;127.108;2023-04-24T12:26:20;7.00;;;3.20;;
78908;SDS011;68298;37.368;127.108;2023-04-24T12:28:52;5.00;;;3.40;;
78908;SDS011;68298;37.368;127.108;2023-04-24T12:31:23;5.97;;;4.22;;
78908;SDS011;68298;37.368;127.108;2023-04-24T12:33:53;7.38;;;4.13;;
78908;SDS011;68298;37.368;127.108;2023-04-24T12:36:25;6.88;;;3.50;;
78908;SDS011;68298;37.368;127.108;2023-04-24T12:38:56;6.85;;;3.75;;
78908;SDS011;68298;37.368;127.108;2023-04-24T12:41:27;6.70;;;3.70;;
78908;SDS011;68298;37.368;127.108;2023-04-24T12:44:00;6.03;;;3.55;;
78908;SDS011;68298;37.368;127.108;2023-04-24T12:46:31;5.97;;;3.67;;
78908;SDS011;68298;37.368;127.108;2023-04-24T12:49:01;6.20;;;3.63;;
78908;SDS011;68298;37.368;127.108;2023-04-24T12:51:32;8.95;;;3.97;;
78908;SDS011;68298;37.368;127.108;2023-04-24T12:54:02;7.30;;;3.50;;
78908;SDS011;68298;37.368;127.108;2023-04-24T12:56:33;7.03;;;3.97;;
78908;SDS011;68298;37.368;127.108;2023-04-24T12:59:06;6.28;;;3.90;;
78908;SDS011;68298;37.368;127.108;2023-04-24T13:01:36;5.78;;;3.60;;
78908;SDS011;68298;37.368;127.108;2023-04-24T13:04:07;5.78;;;3.53;;
78908;SDS011;68298;37.368;127.108;2023-04-24T13:06:38;8.15;;;3.75;;
78908;SDS011;68298;37.368;127.108;2023-04-24T13:09:09;7.50;;;3.92;;
78908;SDS011;68298;37.368;127.108;2023-04-24T13:11:40;8.98;;;4.68;;
78908;SDS011;68298;37.368;127.108;2023-04-24T13:14:11;8.15;;;4.07;;
78908;SDS011;68298;37.368;127.108;2023-04-24T13:16:41;6.45;;;3.63;;
78908;SDS011;68298;37.368;127.108;2023-04-24T13:19:14;7.47;;;3.90;;
78908;SDS011;68298;37.368;127.108;2023-04-24T13:21:45;8.98;;;4.25;;
78908;SDS011;68298;37.368;127.108;2023-04-24T13:24:16;8.35;;;3.88;;
78908;SDS011;68298;37.368;127.108;2023-04-24T13:26:46;7.43;;;3.88;;
78908;SDS011;68298;37.368;127.108;2023-04-24T13:29:17;10.10;;;4.25;;
78908;SDS011;68298;37.368;127.108;2023-04-24T13:31:49;4.95;;;3.20;;
78908;SDS011;68298;37.368;127.108;2023-04-24T13:34:24;6.93;;;4.03;;
78908;SDS011;68298;37.368;127.108;2023-04-24T13:36:56;6.05;;;3.58;;
78908;SDS011;68298;37.368;127.108;2023-04-24T13:39:27;7.88;;;3.53;;
78908;SDS011;68298;37.368;127.108;2023-04-24T13:41:58;7.35;;;4.13;;
78908;SDS011;68298;37.368;127.108;2023-04-24T13:44:32;7.72;;;4.07;;
78908;SDS011;68298;37.368;127.108;2023-04-24T13:47:02;7.40;;;3.97;;
78908;SDS011;68298;37.368;127.108;2023-04-24T13:49:33;7.65;;;3.63;;
78908;SDS011;68298;37.368;127.108;2023-04-24T13:52:04;6.13;;;3.72;;
78908;SDS011;68298;37.368;127.108;2023-04-24T13:54:34;8.65;;;4.25;;
78908;SDS011;68298;37.368;127.108;2023-04-24T13:57:05;5.47;;;4.05;;
78908;SDS011;68298;37.368;127.108;2023-04-24T13:59:35;8.23;;;4.22;;
78908;SDS011;68298;37.368;127.108;2023-04-24T14:02:06;8.18;;;4.05;;
78908;SDS011;68298;37.368;127.108;2023-04-24T14:04:36;9.10;;;4.20;;
78908;SDS011;68298;37.368;127.108;2023-04-24T14:07:07;9.63;;;4.25;;
78908;SDS011;68298;37.368;127.108;2023-04-24T14:09:38;7.75;;;4.18;;
78908;SDS011;68298;37.368;127.108;2023-04-24T14:12:09;9.68;;;4.07;;
78908;SDS011;68298;37.368;127.108;2023-04-24T14:14:39;8.35;;;4.10;;
78908;SDS011;68298;37.368;127.108;2023-04-24T14:17:10;8.25;;;4.50;;
78908;SDS011;68298;37.368;127.108;2023-04-24T14:19:41;7.75;;;3.80;;
78908;SDS011;68298;37.368;127.108;2023-04-24T14:22:11;7.10;;;3.88;;
78908;SDS011;68298;37.368;127.108;2023-04-24T14:24:42;7.63;;;4.00;;
78908;SDS011;68298;37.368;127.108;2023-04-24T14:27:12;8.38;;;3.92;;
78908;SDS011;68298;37.368;127.108;2023-04-24T14:29:43;10.45;;;4.35;;
78908;SDS011;68298;37.368;127.108;2023-04-24T14:32:14;5.80;;;3.58;;
78908;SDS011;68298;37.368;127.108;2023-04-24T14:34:44;5.88;;;3.65;;
78908;SDS011;68298;37.368;127.108;2023-04-24T14:37:15;5.55;;;4.03;;
78908;SDS011;68298;37.368;127.108;2023-04-24T14:39:45;6.60;;;3.97;;
78908;SDS011;68298;37.368;127.108;2023-04-24T14:42:27;7.68;;;4.18;;
78908;SDS011;68298;37.368;127.108;2023-04-24T14:44:58;7.20;;;4.53;;
78908;SDS011;68298;37.368;127.108;2023-04-24T14:47:29;7.10;;;3.88;;
78908;SDS011;68298;37.368;127.108;2023-04-24T14:49:59;9.18;;;4.43;;
78908;SDS011;68298;37.368;127.108;2023-04-24T14:52:30;6.20;;;4.15;;
78908;SDS011;68298;37.368;127.108;2023-04-24T14:55:00;9.55;;;4.30;;
78908;SDS011;68298;37.368;127.108;2023-04-24T14:57:31;7.85;;;4.88;;
78908;SDS011;68298;37.368;127.108;2023-04-24T15:00:05;7.38;;;4.30;;
78908;SDS011;68298;37.368;127.108;2023-04-24T15:02:39;6.50;;;4.18;;
78908;SDS011;68298;37.368;127.108;2023-04-24T15:05:11;9.32;;;4.38;;
78908;SDS011;68298;37.368;127.108;2023-04-24T15:07:42;7.72;;;4.55;;
78908;SDS011;68298;37.368;127.108;2023-04-24T15:10:12;5.40;;;3.90;;
78908;SDS011;68298;37.368;127.108;2023-04-24T15:12:43;7.22;;;4.40;;
78908;SDS011;68298;37.368;127.108;2023-04-24T15:15:14;6.63;;;3.97;;
78908;SDS011;68298;37.368;127.108;2023-04-24T15:17:44;8.40;;;5.03;;
78908;SDS011;68298;37.368;127.108;2023-04-24T15:20:15;7.55;;;3.70;;